Terminal Aerodrome Forecast
Issued by NWS Grand Rapids, MI

Home | Current Version | Previous Version | Text Only | Print | Product List | Glossary On
Versions: 1 2 3 4 5 6 7 8 9 10 11 12 13 14 15
000
FTUS43 KGRR 270532
TAFGRR
TAF
KGRR 270532Z 2706/2806 06003KT P6SM BKN100
     FM270700 08004KT P6SM VCSH OVC050
     FM271400 13006KT P6SM VCTS OVC040CB
     FM271800 16010KT P6SM VCTS OVC035CB
     FM272200 16005KT P6SM BKN040=

USA.gov is the U.S. government's official web portal to all federal, state and local government web resources and services.